Time;durP1;ratioP1;P1;durP2;ratioP2;P2;SDS_P1;SDS_P2;PMS_P1;PMS_P2;Temp;Humidity;BMP_temperature;BMP_pressure;BME280_temperature;BME280_humidity;BME280_pressure;Samples;Min_cycle;Max_cycle;Signal;HPM_P1;HPM_P2
2023/10/13 00:01:20;;;;;;;7.50;4.53;;;537.60;1254.40;;;;;;4990646;28;20461;-58
2023/10/13 00:03:46;;;;;;;6.20;4.20;;;537.60;1254.40;;;;;;4990345;28;20047;-57
2023/10/13 00:06:12;;;;;;;7.32;4.45;;;537.60;1254.40;;;;;;4989656;28;20046;-57
2023/10/13 00:08:39;;;;;;;7.35;4.82;;;537.60;1254.40;;;;;;4988984;28;20096;-56
2023/10/13 00:11:05;;;;;;;8.20;4.82;;;537.60;1254.40;;;;;;4989155;28;20405;-56
2023/10/13 00:13:52;;;;;;;7.40;4.45;;;537.60;1254.40;;;;;;4989031;28;20125;-57
2023/10/13 00:16:21;;;;;;;6.70;4.78;;;537.60;1254.40;;;;;;4985896;28;20046;-57
2023/10/13 00:18:50;;;;;;;6.20;4.50;;;537.60;1254.40;;;;;;4990377;28;20108;-57
2023/10/13 00:21:19;;;;;;;10.00;5.18;;;537.60;1254.40;;;;;;4989598;28;20125;-57
2023/10/13 00:23:52;;;;;;;6.72;5.03;;;537.60;1254.40;;;;;;4988741;28;20089;-57
2023/10/13 00:26:24;;;;;;;7.85;5.00;;;537.60;1254.40;;;;;;4989109;28;20096;-57
2023/10/13 00:28:58;;;;;;;7.38;4.65;;;537.60;1254.40;;;;;;4990144;28;20042;-57
2023/10/13 00:31:28;;;;;;;10.05;5.85;;;537.60;1254.40;;;;;;4989518;28;20048;-57
2023/10/13 00:34:00;;;;;;;8.27;5.03;;;537.60;1254.40;;;;;;4988975;28;20057;-57
2023/10/13 00:36:26;;;;;;;7.53;5.28;;;537.60;1254.40;;;;;;4988744;28;20082;-58
2023/10/13 00:38:52;;;;;;;8.77;5.03;;;537.60;1254.40;;;;;;4989432;28;20073;-58
2023/10/13 00:41:33;;;;;;;7.70;4.95;;;537.60;1280.00;;;;;;4988835;28;20145;-57
2023/10/13 00:44:04;;;;;;;8.07;5.40;;;537.60;1280.00;;;;;;4987846;28;20088;-56
2023/10/13 00:46:33;;;;;;;6.72;4.78;;;537.60;1305.60;;;;;;4987644;28;20138;-57
2023/10/13 00:49:00;;;;;;;8.88;5.22;;;537.60;1254.40;;;;;;4989330;28;20054;-58
2023/10/13 00:51:47;;;;;;;9.30;5.40;;;537.60;1254.40;;;;;;4989441;28;20430;-56
2023/10/13 00:54:16;;;;;;;10.30;5.57;;;537.60;1254.40;;;;;;4988888;28;20061;-56
2023/10/13 00:56:49;;;;;;;7.82;4.70;;;537.60;1254.40;;;;;;4987887;28;20046;-58
2023/10/13 00:59:17;;;;;;;10.38;5.03;;;537.60;1254.40;;;;;;4987316;28;20062;-57
2023/10/13 01:01:43;;;;;;;6.60;4.88;;;537.60;1305.60;;;;;;4988661;28;20108;-56
2023/10/13 01:04:12;;;;;;;7.25;5.32;;;537.60;1254.40;;;;;;4988925;28;20089;-57
2023/10/13 01:06:39;;;;;;;6.97;4.82;;;537.60;1254.40;;;;;;4988830;28;20476;-57
2023/10/13 01:09:17;;;;;;;6.95;4.97;;;537.60;1254.40;;;;;;4988600;28;20039;-58
2023/10/13 01:11:52;;;;;;;9.45;5.10;;;537.60;1280.00;;;;;;4987671;28;20057;-57
2023/10/13 01:14:20;;;;;;;7.05;4.95;;;537.60;1254.40;;;;;;4989039;28;20513;-57
2023/10/13 01:16:47;;;;;;;7.68;5.45;;;537.60;1254.40;;;;;;4988766;28;20493;-57
2023/10/13 01:19:19;;;;;;;7.75;4.93;;;537.60;1254.40;;;;;;4988568;28;20485;-57
2023/10/13 01:21:45;;;;;;;8.05;5.20;;;537.60;1254.40;;;;;;4988065;28;20050;-57
2023/10/13 01:24:12;;;;;;;8.10;5.18;;;537.60;1254.40;;;;;;4988870;28;20049;-57
2023/10/13 01:26:38;;;;;;;5.90;4.80;;;537.60;1280.00;;;;;;4986880;28;20460;-56
2023/10/13 01:29:15;;;;;;;6.45;4.70;;;537.60;1254.40;;;;;;4988015;28;20042;-56
2023/10/13 01:31:48;;;;;;;7.20;4.72;;;537.60;1254.40;;;;;;4987789;28;20065;-58
2023/10/13 01:34:21;;;;;;;7.38;5.25;;;537.60;1254.40;;;;;;4988191;28;20046;-57
2023/10/13 01:36:50;;;;;;;6.72;5.13;;;537.60;1254.40;;;;;;4989012;28;20126;-57
2023/10/13 01:39:17;;;;;;;5.72;4.53;;;537.60;1254.40;;;;;;4987434;28;20050;-56
2023/10/13 01:41:43;;;;;;;6.85;5.28;;;537.60;1280.00;;;;;;4987866;28;20128;-58
2023/10/13 01:44:12;;;;;;;6.07;4.70;;;537.60;1280.00;;;;;;4988036;28;20479;-58
2023/10/13 01:46:42;;;;;;;6.05;4.32;;;537.60;1280.00;;;;;;4988438;28;20046;-55
2023/10/13 01:49:08;;;;;;;5.72;4.47;;;537.60;1280.00;;;;;;4986690;28;20046;-57
2023/10/13 01:51:34;;;;;;;6.70;4.95;;;537.60;1280.00;;;;;;4987913;28;20129;-57
2023/10/13 01:54:04;;;;;;;7.25;4.60;;;537.60;1280.00;;;;;;4988167;28;20125;-57
2023/10/13 01:56:31;;;;;;;5.65;4.78;;;537.60;1280.00;;;;;;4987295;28;20104;-56
2023/10/13 01:58:56;;;;;;;6.05;4.65;;;537.60;1280.00;;;;;;4987505;28;20082;-57
2023/10/13 02:01:28;;;;;;;5.55;4.22;;;537.60;1280.00;;;;;;4986448;28;20058;-57
2023/10/13 02:04:03;;;;;;;6.75;4.75;;;537.60;1280.00;;;;;;4988188;28;20057;-57
2023/10/13 02:06:33;;;;;;;8.15;5.07;;;537.60;1280.00;;;;;;4987565;28;20050;-57
2023/10/13 02:09:25;;;;;;;5.40;4.47;;;537.60;1280.00;;;;;;4987589;28;20070;-57
2023/10/13 02:11:54;;;;;;;7.75;4.57;;;537.60;1280.00;;;;;;4984016;28;20449;-55
2023/10/13 02:14:22;;;;;;;5.82;4.57;;;537.60;1280.00;;;;;;4969190;28;20389;-57
2023/10/13 02:16:55;;;;;;;6.30;4.40;;;537.60;1280.00;;;;;;4968864;28;20101;-57
2023/10/13 02:19:21;;;;;;;6.03;4.57;;;537.60;1280.00;;;;;;4967362;28;20106;-57
2023/10/13 02:21:58;;;;;;;4.88;4.10;;;512.00;1305.60;;;;;;4968106;28;20055;-57
2023/10/13 02:24:29;;;;;;;6.80;4.50;;;537.60;1280.00;;;;;;4966130;28;20125;-57
2023/10/13 02:26:56;;;;;;;5.20;4.20;;;537.60;1280.00;;;;;;4967008;28;20115;-56
2023/10/13 02:29:22;;;;;;;5.93;4.45;;;537.60;1280.00;;;;;;4967348;28;20050;-56
2023/10/13 02:31:54;;;;;;;7.43;4.25;;;512.00;1305.60;;;;;;4968715;28;20035;-58
2023/10/13 02:34:22;;;;;;;5.90;3.83;;;537.60;1280.00;;;;;;4966830;28;20130;-57
2023/10/13 02:36:51;;;;;;;5.38;4.07;;;537.60;1280.00;;;;;;4968424;28;20082;-57
2023/10/13 02:39:25;;;;;;;5.80;4.43;;;537.60;1280.00;;;;;;4972745;28;20116;-57
2023/10/13 02:41:51;;;;;;;5.25;4.00;;;537.60;1280.00;;;;;;4987069;28;20051;-57
2023/10/13 02:44:27;;;;;;;4.63;3.95;;;512.00;1305.60;;;;;;4987614;28;20064;-58
2023/10/13 02:46:55;;;;;;;5.75;3.92;;;537.60;1280.00;;;;;;4986890;28;20053;-57
2023/10/13 02:49:26;;;;;;;6.15;4.53;;;512.00;1305.60;;;;;;4987195;28;20042;-57
2023/10/13 02:51:59;;;;;;;7.47;3.95;;;537.60;1280.00;;;;;;4987544;28;20125;-58
2023/10/13 02:54:31;;;;;;;7.75;4.95;;;537.60;1280.00;;;;;;4986840;28;20050;-57
2023/10/13 02:56:57;;;;;;;6.38;4.72;;;537.60;1280.00;;;;;;4984585;28;20057;-57
2023/10/13 02:59:46;;;;;;;7.00;4.55;;;537.60;1280.00;;;;;;4987105;28;20046;-57
2023/10/13 03:02:25;;;;;;;6.93;4.22;;;537.60;1280.00;;;;;;4986623;28;20077;-57
2023/10/13 03:04:59;;;;;;;7.40;4.72;;;512.00;1305.60;;;;;;4986795;28;20050;-56
2023/10/13 03:07:30;;;;;;;5.00;4.50;;;537.60;1280.00;;;;;;4987155;28;20046;-57
2023/10/13 03:09:59;;;;;;;5.43;4.32;;;512.00;1305.60;;;;;;4986451;28;20046;-58
2023/10/13 03:12:26;;;;;;;5.97;4.97;;;537.60;1305.60;;;;;;4985327;28;20097;-57
2023/10/13 03:15:35;;;;;;;6.63;4.85;;;537.60;1305.60;;;;;;4986806;28;20047;-58
2023/10/13 03:17:45;;;;;;;7.53;4.55;;;512.00;1331.20;;;;;;4988931;28;20054;-57
2023/10/13 03:20:13;;;;;;;6.32;4.88;;;512.00;1331.20;;;;;;4985554;28;20656;-57
2023/10/13 03:22:39;;;;;;;7.60;4.80;;;512.00;1331.20;;;;;;4986862;28;20050;-58
2023/10/13 03:25:07;;;;;;;5.80;5.07;;;537.60;1305.60;;;;;;4984274;28;20046;-57
2023/10/13 03:27:41;;;;;;;6.82;4.95;;;512.00;1331.20;;;;;;4987222;28;20051;-56
2023/10/13 03:30:15;;;;;;;6.15;5.28;;;512.00;1331.20;;;;;;4986456;28;20121;-57
2023/10/13 03:32:45;;;;;;;6.78;5.07;;;537.60;1305.60;;;;;;4986444;28;20042;-55
2023/10/13 03:35:13;;;;;;;6.70;4.93;;;512.00;1331.20;;;;;;4990504;28;20096;-56
2023/10/13 03:37:38;;;;;;;6.45;4.75;;;512.00;1331.20;;;;;;4991117;28;20130;-57
2023/10/13 03:43:12;;;;;;;6.13;4.72;;;512.00;1331.20;;;;;;4991143;28;20054;-57
2023/10/13 03:45:42;;;;;;;4.90;4.40;;;512.00;1331.20;;;;;;4990744;28;20060;-57
2023/10/13 03:51:03;;;;;;;6.00;4.80;;;512.00;1331.20;;;;;;4990813;28;20050;-57
2023/10/13 03:53:52;;;;;;;5.63;4.45;;;537.60;1331.20;;;;;;4990636;28;20437;-57
2023/10/13 03:56:28;;;;;;;5.75;4.53;;;512.00;1356.80;;;;;;4989919;28;20101;-57
2023/10/13 03:58:58;;;;;;;5.43;4.45;;;512.00;1356.80;;;;;;4990057;28;20070;-57
2023/10/13 04:01:31;;;;;;;5.57;4.60;;;512.00;1356.80;;;;;;4989918;28;20559;-56
2023/10/13 04:04:08;;;;;;;5.10;4.20;;;512.00;1433.60;;;;;;4990341;28;20092;-56
2023/10/13 04:17:25;;;;;;;5.25;4.32;;;512.00;1356.80;;;;;;4989711;28;20046;-57
2023/10/13 04:38:56;;;;;;;4.47;3.88;;;512.00;1382.40;;;;;;4988759;28;20300;-57
2023/10/13 04:41:42;;;;;;;6.43;4.50;;;512.00;1382.40;;;;;;4987163;28;20050;-56
2023/10/13 04:49:35;;;;;;;5.25;4.30;;;512.00;1408.00;;;;;;4989245;28;20201;-57
2023/10/13 04:54:45;;;;;;;5.07;4.38;;;512.00;1408.00;;;;;;4988887;28;20038;-57
2023/10/13 04:57:47;;;;;;;6.93;4.55;;;512.00;1408.00;;;;;;4988458;28;20082;-57
2023/10/13 05:03:40;;;;;;;6.18;4.60;;;512.00;1408.00;;;;;;4988391;28;20429;-56
2023/10/13 05:47:01;;;;;;;4.70;4.13;;;512.00;1433.60;;;;;;4988450;28;20141;-57
2023/10/13 05:49:40;;;;;;;4.70;4.05;;;512.00;1433.60;;;;;;4988308;28;20069;-57
2023/10/13 05:52:18;;;;;;;4.28;3.70;;;512.00;1433.60;;;;;;4986854;28;20052;-57
2023/10/13 06:30:22;;;;;;;3.40;3.10;;;512.00;1459.20;;;;;;4987005;28;20046;-58
2023/10/13 06:32:47;;;;;;;3.53;3.20;;;512.00;1459.20;;;;;;4987799;28;20046;-57
2023/10/13 06:35:22;;;;;;;3.50;3.17;;;512.00;1510.40;;;;;;4985897;28;20046;-55
2023/10/13 06:37:48;;;;;;;4.15;3.60;;;512.00;1459.20;;;;;;4967738;28;20043;-57
2023/10/13 06:40:36;;;;;;;3.72;2.97;;;512.00;1459.20;;;;;;4966971;28;20047;-57
2023/10/13 06:43:21;;;;;;;4.13;3.55;;;512.00;1459.20;;;;;;4966898;28;20042;-57
2023/10/13 06:46:00;;;;;;;3.70;3.25;;;512.00;1459.20;;;;;;4968526;28;20051;-57
2023/10/13 06:48:26;;;;;;;3.42;3.13;;;512.00;1459.20;;;;;;4967618;28;20045;-58
2023/10/13 06:50:52;;;;;;;3.67;3.20;;;512.00;1459.20;;;;;;4967775;28;20051;-58
2023/10/13 06:53:19;;;;;;;3.10;2.80;;;512.00;1484.80;;;;;;4983076;28;20051;-56
2023/10/13 06:55:47;;;;;;;3.90;3.42;;;512.00;1459.20;;;;;;4971560;28;20374;-57
2023/10/13 06:58:14;;;;;;;3.88;3.10;;;512.00;1459.20;;;;;;4987003;28;20061;-57
2023/10/13 07:00:52;;;;;;;3.53;3.13;;;512.00;1459.20;;;;;;4979397;28;20050;-56
2023/10/13 07:03:19;;;;;;;4.57;3.10;;;512.00;1484.80;;;;;;4973415;28;20050;-57
2023/10/13 07:05:48;;;;;;;3.58;2.90;;;512.00;1484.80;;;;;;4968243;28;20469;-57
2023/10/13 07:08:17;;;;;;;4.72;3.30;;;512.00;1484.80;;;;;;4966850;28;20069;-60
2023/10/13 07:11:05;;;;;;;4.95;2.90;;;512.00;1484.80;;;;;;4965926;28;20081;-61
2023/10/13 07:13:31;;;;;;;4.03;3.42;;;512.00;1484.80;;;;;;4976920;28;20050;-57
2023/10/13 07:16:00;;;;;;;3.90;3.00;;;537.60;1459.20;;;;;;4977157;28;20039;-54
2023/10/13 07:18:26;;;;;;;3.80;3.17;;;537.60;1459.20;;;;;;4976476;28;20053;-56
2023/10/13 07:20:57;;;;;;;5.32;3.08;;;512.00;1484.80;;;;;;4972272;28;20081;-54
2023/10/13 07:23:24;;;;;;;5.43;3.00;;;512.00;1484.80;;;;;;4986853;28;20096;-54
2023/10/13 07:26:02;;;;;;;4.40;3.00;;;537.60;1484.80;;;;;;4984156;28;20126;-54
2023/10/13 07:28:36;;;;;;;4.82;3.40;;;537.60;1484.80;;;;;;4977994;28;20093;-55
2023/10/13 07:33:31;;;;;;;4.60;3.20;;;537.60;1484.80;;;;;;4975104;28;20047;-54
2023/10/13 07:36:19;;;;;;;5.35;3.10;;;537.60;1484.80;;;;;;4980681;28;20049;-53
2023/10/13 07:38:59;;;;;;;4.82;3.38;;;537.60;1484.80;;;;;;4986628;28;20401;-53
2023/10/13 07:41:30;;;;;;;4.40;2.67;;;512.00;1510.40;;;;;;4979686;28;20046;-54
2023/10/13 07:43:57;;;;;;;5.75;3.10;;;537.60;1484.80;;;;;;4979445;28;20060;-55
2023/10/13 07:46:31;;;;;;;6.20;3.00;;;512.00;1510.40;;;;;;4975041;28;20536;-55
2023/10/13 07:49:08;;;;;;;5.85;3.38;;;537.60;1484.80;;;;;;4980461;28;20098;-52
2023/10/13 07:51:44;;;;;;;4.85;3.05;;;537.60;1484.80;;;;;;4985135;28;20054;-54
2023/10/13 07:54:13;;;;;;;5.43;3.17;;;512.00;1510.40;;;;;;4985316;28;20508;-55
2023/10/13 07:56:39;;;;;;;5.75;2.95;;;537.60;1510.40;;;;;;4983745;28;20057;-56
2023/10/13 07:59:09;;;;;;;5.60;3.20;;;537.60;1510.40;;;;;;4980267;28;20039;-54
2023/10/13 08:01:35;;;;;;;4.20;3.17;;;537.60;1510.40;;;;;;4977355;28;20059;-52
2023/10/13 08:04:14;;;;;;;7.47;3.22;;;537.60;1510.40;;;;;;4975803;28;20135;-50
2023/10/13 08:06:40;;;;;;;4.95;3.10;;;537.60;1510.40;;;;;;4984982;28;20088;-54
2023/10/13 08:09:09;;;;;;;4.30;2.78;;;537.60;1510.40;;;;;;4978916;28;20047;-54
2023/10/13 08:11:38;;;;;;;7.75;3.35;;;537.60;1510.40;;;;;;4966787;28;20385;-55
2023/10/13 08:14:23;;;;;;;5.78;2.85;;;537.60;1510.40;;;;;;4976850;28;20038;-55
2023/10/13 08:16:52;;;;;;;5.70;3.00;;;537.60;1510.40;;;;;;4980185;28;20038;-54
2023/10/13 08:19:39;;;;;;;7.20;3.33;;;537.60;1510.40;;;;;;4969195;28;20086;-58
2023/10/13 08:22:23;;;;;;;3.90;2.90;;;537.60;1510.40;;;;;;4969903;28;20046;-56
2023/10/13 08:27:48;;;;;;;6.22;3.58;;;537.60;1510.40;;;;;;4969529;28;20290;-55
2023/10/13 08:30:26;;;;;;;7.95;3.20;;;537.60;1536.00;;;;;;4969452;28;20075;-57
2023/10/13 08:32:54;;;;;;;10.45;3.40;;;537.60;1536.00;;;;;;4969145;28;20043;-56
2023/10/13 08:35:54;;;;;;;7.20;3.58;;;537.60;1536.00;;;;;;4969742;28;20054;-55
2023/10/13 08:38:19;;;;;;;10.35;3.70;;;537.60;1510.40;;;;;;4988382;28;20046;-55
2023/10/13 08:43:42;;;;;;;8.02;3.90;;;537.60;1510.40;;;;;;4978254;28;20381;-55
2023/10/13 08:46:08;;;;;;;;;;;537.60;1510.40;;;;;;4989493;28;20038;-56
2023/10/13 08:48:36;;;;;;;6.85;3.47;;;537.60;1510.40;;;;;;4988519;28;19969;-55
2023/10/13 08:51:11;;;;;;;7.15;4.05;;;537.60;1510.40;;;;;;4986721;28;20054;-57
2023/10/13 08:53:51;;;;;;;10.48;3.95;;;537.60;1536.00;;;;;;4987555;28;20049;-54
2023/10/13 08:56:18;;;;;;;8.50;4.10;;;537.60;1536.00;;;;;;4988244;28;20137;-55
2023/10/13 09:01:48;;;;;;;13.43;4.22;;;537.60;1536.00;;;;;;4988636;28;20061;-55
2023/10/13 09:09:43;;;;;;;8.20;3.50;;;537.60;1536.00;;;;;;4987722;28;20129;-53
2023/10/13 09:12:35;;;;;;;9.85;4.10;;;537.60;1536.00;;;;;;4986564;28;20125;-55
2023/10/13 09:15:18;;;;;;;6.93;3.53;;;537.60;1536.00;;;;;;4985113;28;20115;-54
2023/10/13 09:25:38;;;;;;;8.05;3.80;;;537.60;1536.00;;;;;;4968349;28;20074;-53
2023/10/13 09:28:10;;;;;;;12.32;3.97;;;537.60;1536.00;;;;;;4968259;28;20121;-54
2023/10/13 09:30:46;;;;;;;8.20;3.55;;;537.60;1536.00;;;;;;4967926;28;20049;-55
2023/10/13 09:33:20;;;;;;;10.63;3.72;;;537.60;1536.00;;;;;;4980044;28;20046;-54
2023/10/13 09:35:50;;;;;;;10.63;3.72;;;537.60;1536.00;;;;;;4987391;28;20042;-56
2023/10/13 09:38:16;;;;;;;10.98;4.20;;;537.60;1536.00;;;;;;4986380;28;20046;-55
2023/10/13 09:40:49;;;;;;;11.15;3.42;;;537.60;1536.00;;;;;;4968612;28;20078;-54
2023/10/13 09:43:17;;;;;;;8.48;3.65;;;537.60;1536.00;;;;;;4968194;28;20083;-58
2023/10/13 09:48:46;;;;;;;8.52;3.30;;;537.60;1536.00;;;;;;4984292;28;20614;-55
2023/10/13 09:51:14;;;;;;;8.48;3.67;;;537.60;1536.00;;;;;;4987143;28;20534;-55
2023/10/13 09:54:00;;;;;;;9.90;3.60;;;537.60;1536.00;;;;;;4986563;28;20113;-55
2023/10/13 09:56:32;;;;;;;8.05;3.65;;;537.60;1536.00;;;;;;4987666;28;20043;-54
2023/10/13 09:59:09;;;;;;;7.53;3.30;;;537.60;1561.60;;;;;;4988099;28;20505;-55
2023/10/13 10:01:50;;;;;;;8.27;3.25;;;537.60;1561.60;;;;;;4987100;28;20104;-51
2023/10/13 10:04:18;;;;;;;11.27;3.70;;;537.60;1536.00;;;;;;4987717;28;20050;-53
2023/10/13 10:07:02;;;;;;;9.10;3.90;;;537.60;1536.00;;;;;;4986437;28;20069;-54
2023/10/13 10:09:37;;;;;;;9.65;3.58;;;537.60;1587.20;;;;;;4987195;28;20038;-55
2023/10/13 10:12:28;;;;;;;6.25;3.20;;;537.60;1536.00;;;;;;4987538;28;20046;-54
2023/10/13 10:15:06;;;;;;;9.82;3.78;;;537.60;1561.60;;;;;;4987479;28;20550;-55
2023/10/13 10:17:40;;;;;;;5.78;3.10;;;537.60;1561.60;;;;;;4988034;28;20144;-55
2023/10/13 10:20:14;;;;;;;;;;;537.60;1561.60;;;;;;4988064;28;20053;-54
2023/10/13 10:22:47;;;;;;;5.95;3.08;;;537.60;1561.60;;;;;;4987881;28;19932;-55
2023/10/13 10:25:25;;;;;;;9.75;3.35;;;537.60;1561.60;;;;;;4987158;28;20504;-55
2023/10/13 10:27:58;;;;;;;7.70;3.20;;;537.60;1561.60;;;;;;4987655;28;20145;-55
2023/10/13 10:30:28;;;;;;;8.85;3.85;;;537.60;1561.60;;;;;;4987892;28;20474;-54
2023/10/13 10:33:01;;;;;;;8.18;3.45;;;537.60;1587.20;;;;;;4987922;28;20050;-54
2023/10/13 10:35:32;;;;;;;5.47;3.58;;;537.60;1561.60;;;;;;4986487;28;20046;-54
2023/10/13 10:38:11;;;;;;;6.55;3.20;;;537.60;1561.60;;;;;;4987221;28;20121;-54
2023/10/13 10:40:56;;;;;;;7.18;3.40;;;537.60;1561.60;;;;;;4987067;28;20034;-53
2023/10/13 10:43:48;;;;;;;5.85;2.90;;;537.60;1561.60;;;;;;4987121;28;20077;-56
2023/10/13 10:46:18;;;;;;;8.32;3.33;;;537.60;1561.60;;;;;;4982632;28;20065;-54
2023/10/13 10:48:45;;;;;;;6.75;3.22;;;537.60;1561.60;;;;;;4986160;28;20050;-55
2023/10/13 10:51:21;;;;;;;7.60;3.42;;;537.60;1561.60;;;;;;4986736;28;20101;-56
2023/10/13 10:53:51;;;;;;;7.63;3.17;;;537.60;1561.60;;;;;;4980010;28;20046;-55
2023/10/13 10:56:25;;;;;;;7.03;3.63;;;537.60;1561.60;;;;;;4976507;28;20388;-56
2023/10/13 10:58:55;;;;;;;;;;;537.60;1561.60;;;;;;4976868;28;20053;-55
2023/10/13 11:01:33;;;;;;;7.75;3.78;;;537.60;1561.60;;;;;;4979340;28;19949;-56
2023/10/13 11:06:54;;;;;;;9.85;3.72;;;537.60;1561.60;;;;;;4972250;28;20060;-56
2023/10/13 11:09:32;;;;;;;9.00;4.00;;;537.60;1561.60;;;;;;4979290;28;20145;-56
2023/10/13 11:12:15;;;;;;;9.05;3.88;;;537.60;1561.60;;;;;;4974991;28;20121;-56
2023/10/13 11:14:48;;;;;;;11.52;3.83;;;537.60;1561.60;;;;;;4970714;28;20043;-55
2023/10/13 11:17:33;;;;;;;13.15;4.68;;;537.60;1561.60;;;;;;4971791;28;20053;-56
2023/10/13 11:20:15;;;;;;;10.27;3.97;;;537.60;1561.60;;;;;;4977780;28;20070;-56
2023/10/13 11:22:46;;;;;;;11.50;3.90;;;563.20;1561.60;;;;;;4986419;28;20046;-54
2023/10/13 11:25:22;;;;;;;13.65;4.15;;;563.20;1561.60;;;;;;4985093;28;20058;-55
2023/10/13 11:30:25;;;;;;;9.38;3.80;;;563.20;1561.60;;;;;;4967027;28;20061;-55
2023/10/13 11:32:58;;;;;;;9.98;3.72;;;537.60;1561.60;;;;;;4978476;28;20046;-55
2023/10/13 11:35:24;;;;;;;8.88;4.13;;;537.60;1561.60;;;;;;4967483;28;20043;-55
2023/10/13 11:38:03;;;;;;;11.48;4.20;;;537.60;1561.60;;;;;;4977988;28;20125;-55
2023/10/13 11:41:06;;;;;;;10.00;3.67;;;537.60;1561.60;;;;;;4968597;28;20434;-55
2023/10/13 11:46:15;;;;;;;10.20;3.97;;;537.60;1561.60;;;;;;4971624;28;20054;-55
2023/10/13 11:48:42;;;;;;;11.52;3.95;;;537.60;1561.60;;;;;;4977324;28;20050;-56
2023/10/13 11:51:08;;;;;;;8.00;3.95;;;537.60;1561.60;;;;;;4978458;28;20085;-55
2023/10/13 11:53:38;;;;;;;14.48;4.15;;;537.60;1587.20;;;;;;4984367;28;20576;-54
2023/10/13 11:56:09;;;;;;;10.82;4.05;;;537.60;1587.20;;;;;;4981298;28;20046;-58
2023/10/13 11:58:35;;;;;;;9.88;4.25;;;537.60;1587.20;;;;;;4981140;28;20073;-55
2023/10/13 12:01:19;;;;;;;10.10;4.22;;;537.60;1612.80;;;;;;4988391;28;20085;-56
2023/10/13 12:09:13;;;;;;;11.07;3.92;;;537.60;1587.20;;;;;;4978576;28;20055;-56
2023/10/13 12:11:41;;;;;;;11.07;4.63;;;537.60;1587.20;;;;;;4970305;28;20086;-58
2023/10/13 12:14:17;;;;;;;9.32;4.10;;;537.60;1587.20;;;;;;4971148;28;20692;-55
2023/10/13 12:16:50;;;;;;;8.68;3.92;;;537.60;1587.20;;;;;;4970791;28;20047;-56
2023/10/13 12:19:27;;;;;;;12.50;4.13;;;537.60;1587.20;;;;;;4970264;28;20049;-54
2023/10/13 12:21:56;;;;;;;9.50;4.20;;;537.60;1587.20;;;;;;4970201;28;20061;-55
2023/10/13 12:27:34;;;;;;;9.45;4.10;;;537.60;1587.20;;;;;;4972115;28;20043;-54
2023/10/13 12:30:07;;;;;;;8.68;3.85;;;537.60;1587.20;;;;;;4979607;28;20085;-54
2023/10/13 12:32:34;;;;;;;11.05;4.30;;;537.60;1587.20;;;;;;4978748;28;20073;-55
2023/10/13 12:37:51;;;;;;;9.90;4.15;;;537.60;1587.20;;;;;;4970226;28;20055;-54
2023/10/13 12:51:20;;;;;;;7.90;4.38;;;537.60;1638.40;;;;;;4989381;28;20146;-55
2023/10/13 12:53:51;;;;;;;11.07;4.78;;;537.60;1587.20;;;;;;4984298;28;20436;-56
2023/10/13 12:56:17;;;;;;;10.80;4.47;;;537.60;1612.80;;;;;;4981036;28;20062;-54
2023/10/13 12:58:54;;;;;;;9.05;4.43;;;537.60;1587.20;;;;;;4988949;28;20050;-56
2023/10/13 13:01:23;;;;;;;9.05;4.57;;;537.60;1638.40;;;;;;4989267;28;20081;-54
2023/10/13 13:03:55;;;;;;;7.72;3.80;;;537.60;1612.80;;;;;;4982729;28;20152;-55
2023/10/13 13:06:25;;;;;;;6.85;3.70;;;537.60;1612.80;;;;;;4980507;28;20073;-55
2023/10/13 13:09:00;;;;;;;10.73;4.57;;;537.60;1612.80;;;;;;4976247;28;20122;-57
2023/10/13 13:11:29;;;;;;;8.70;4.53;;;537.60;1612.80;;;;;;4985852;28;20039;-55
2023/10/13 13:13:55;;;;;;;10.23;4.25;;;537.60;1638.40;;;;;;4984781;28;20104;-55
2023/10/13 13:16:23;;;;;;;8.77;4.63;;;537.60;1612.80;;;;;;4985483;28;20068;-55
2023/10/13 13:18:55;;;;;;;10.23;4.78;;;537.60;1638.40;;;;;;4984756;28;20106;-53
2023/10/13 13:21:23;;;;;;;7.68;4.72;;;537.60;1612.80;;;;;;4982832;28;20042;-55
2023/10/13 13:23:54;;;;;;;9.77;4.82;;;537.60;1612.80;;;;;;4982805;28;20066;-53
2023/10/13 13:26:21;;;;;;;12.85;5.18;;;537.60;1612.80;;;;;;4984693;28;20038;-55
2023/10/13 13:28:50;;;;;;;10.38;5.00;;;537.60;1612.80;;;;;;4984269;28;20137;-54
2023/10/13 13:31:25;;;;;;;9.63;4.82;;;537.60;1612.80;;;;;;4984794;28;20076;-56
2023/10/13 13:33:51;;;;;;;10.57;4.90;;;537.60;1612.80;;;;;;4984221;28;20453;-56
2023/10/13 13:36:17;;;;;;;9.45;4.40;;;537.60;1612.80;;;;;;4986226;28;20081;-55
2023/10/13 13:38:45;;;;;;;13.52;5.40;;;537.60;1612.80;;;;;;4982679;28;20217;-55
2023/10/13 13:41:18;;;;;;;13.50;4.80;;;537.60;1612.80;;;;;;4984243;28;20507;-56
2023/10/13 13:46:27;;;;;;;7.88;4.43;;;537.60;1612.80;;;;;;4985038;28;20124;-56
2023/10/13 13:49:00;;;;;;;10.32;4.45;;;537.60;1612.80;;;;;;4975839;28;20097;-56
2023/10/13 13:51:27;;;;;;;12.27;5.53;;;537.60;1638.40;;;;;;4985874;28;20050;-52
2023/10/13 13:53:54;;;;;;;13.25;4.55;;;537.60;1612.80;;;;;;4982464;28;20105;-55
2023/10/13 13:56:20;;;;;;;9.48;5.22;;;537.60;1612.80;;;;;;4985391;28;20050;-54
2023/10/13 13:58:48;;;;;;;8.23;4.28;;;537.60;1612.80;;;;;;4984407;28;20413;-54
2023/10/13 14:01:25;;;;;;;10.27;4.90;;;537.60;1638.40;;;;;;4983039;28;20532;-56
2023/10/13 14:03:51;;;;;;;9.32;5.10;;;537.60;1638.40;;;;;;4985366;28;20042;-56
2023/10/13 14:06:23;;;;;;;12.80;5.60;;;537.60;1612.80;;;;;;4985475;28;20445;-56
2023/10/13 14:16:53;;;;;;;8.40;4.82;;;537.60;1612.80;;;;;;4978132;28;20085;-56
2023/10/13 14:19:28;;;;;;;8.77;5.00;;;537.60;1612.80;;;;;;4983261;28;20042;-54
2023/10/13 14:21:55;;;;;;;9.23;5.00;;;537.60;1638.40;;;;;;4984563;28;20406;-54
2023/10/13 14:24:27;;;;;;;7.40;4.78;;;537.60;1612.80;;;;;;4983504;28;20046;-52
2023/10/13 14:26:56;;;;;;;10.48;5.65;;;537.60;1612.80;;;;;;4983635;28;20117;-55
2023/10/13 14:29:26;;;;;;;10.77;5.30;;;537.60;1638.40;;;;;;4982498;28;20049;-53
2023/10/13 14:31:52;;;;;;;7.68;4.63;;;537.60;1612.80;;;;;;4982413;28;20085;-55
2023/10/13 14:34:21;;;;;;;12.07;5.03;;;537.60;1612.80;;;;;;4983939;28;20121;-55
2023/10/13 14:36:48;;;;;;;13.55;5.32;;;537.60;1612.80;;;;;;4984798;28;20559;-55
2023/10/13 14:39:14;;;;;;;11.93;5.25;;;537.60;1612.80;;;;;;4979572;28;20122;-54
2023/10/13 14:41:40;;;;;;;10.25;5.45;;;537.60;1638.40;;;;;;4980758;28;20196;-56
2023/10/13 14:44:06;;;;;;;8.88;5.00;;;537.60;1612.80;;;;;;4982352;28;20070;-55
2023/10/13 14:46:35;;;;;;;10.05;5.45;;;537.60;1638.40;;;;;;4967000;28;20046;-56
2023/10/13 14:49:02;;;;;;;11.52;5.80;;;537.60;1612.80;;;;;;4981836;28;20053;-55
2023/10/13 14:51:29;;;;;;;9.32;5.43;;;537.60;1638.40;;;;;;4983443;28;20429;-56
2023/10/13 14:53:59;;;;;;;14.38;5.70;;;537.60;1638.40;;;;;;4981880;28;20072;-54
2023/10/13 14:56:26;;;;;;;10.90;5.35;;;537.60;1638.40;;;;;;4983085;28;20050;-56
2023/10/13 14:58:53;;;;;;;10.30;5.50;;;537.60;1638.40;;;;;;4981309;28;20088;-55
2023/10/13 15:01:21;;;;;;;10.13;4.93;;;537.60;1612.80;;;;;;4983904;28;20165;-56
2023/10/13 15:03:58;;;;;;;9.40;5.20;;;537.60;1638.40;;;;;;4981355;28;20601;-55
2023/10/13 15:06:28;;;;;;;11.20;5.65;;;537.60;1638.40;;;;;;4981595;28;20046;-55
2023/10/13 15:08:55;;;;;;;10.38;5.40;;;537.60;1638.40;;;;;;4982271;28;20049;-56
2023/10/13 15:11:21;;;;;;;10.52;5.10;;;537.60;1638.40;;;;;;4984138;28;20052;-53
2023/10/13 15:13:48;;;;;;;8.88;5.00;;;537.60;1638.40;;;;;;4983507;28;20612;-55
2023/10/13 15:16:22;;;;;;;11.38;5.28;;;537.60;1612.80;;;;;;4982910;28;20038;-52
2023/10/13 15:18:52;;;;;;;8.57;5.65;;;537.60;1638.40;;;;;;4984416;28;20051;-57
2023/10/13 15:21:28;;;;;;;10.73;5.93;;;537.60;1638.40;;;;;;4982769;28;20154;-55
2023/10/13 15:23:59;;;;;;;12.80;5.82;;;537.60;1638.40;;;;;;4981035;28;20121;-55
2023/10/13 15:26:25;;;;;;;10.70;5.72;;;537.60;1638.40;;;;;;4976449;28;20676;-57
2023/10/13 15:28:55;;;;;;;9.77;5.53;;;537.60;1638.40;;;;;;4980002;28;20042;-55
2023/10/13 15:34:00;;;;;;;10.98;5.25;;;537.60;1664.00;;;;;;4985652;28;20057;-55
2023/10/13 15:36:27;;;;;;;12.23;5.80;;;537.60;1664.00;;;;;;4986794;28;20113;-56
2023/10/13 15:38:53;;;;;;;10.40;5.68;;;537.60;1638.40;;;;;;4986517;28;20046;-55
2023/10/13 15:41:23;;;;;;;12.18;5.65;;;537.60;1638.40;;;;;;4986896;28;20046;-55
2023/10/13 15:43:52;;;;;;;13.18;6.10;;;537.60;1664.00;;;;;;4986737;28;20046;-56
2023/10/13 15:46:22;;;;;;;11.25;5.95;;;537.60;1638.40;;;;;;4986144;28;20056;-56
2023/10/13 15:48:48;;;;;;;12.07;5.85;;;537.60;1638.40;;;;;;4987204;28;20042;-56
2023/10/13 15:51:14;;;;;;;10.05;5.32;;;537.60;1638.40;;;;;;4984833;28;20142;-55
2023/10/13 15:53:41;;;;;;;11.80;5.72;;;537.60;1638.40;;;;;;4985986;28;20133;-56